Time;durP1;ratioP1;P1;durP2;ratioP2;P2;SDS_P1;SDS_P2;PMS_P1;PMS_P2;Temp;Humidity;BMP_temperature;BMP_pressure;BME280_temperature;BME280_humidity;BME280_pressure;Samples;Min_cycle;Max_cycle;Signal;HPM_P1;HPM_P2
2023/09/14 00:02:07;;;;;;;12.20;7.60;;;13.20;99.90;;;;;;5012104;28;20153;-87
2023/09/14 00:04:33;;;;;;;11.38;8.50;;;13.20;99.90;;;;;;5012172;28;20727;-88
2023/09/14 00:06:58;;;;;;;13.90;9.13;;;13.10;99.90;;;;;;4991768;28;20034;-88
2023/09/14 00:09:24;;;;;;;10.77;7.65;;;13.10;99.90;;;;;;4993744;28;20039;-88
2023/09/14 00:11:50;;;;;;;12.75;8.52;;;13.10;99.90;;;;;;5004615;28;20038;-88
2023/09/14 00:14:15;;;;;;;12.05;8.68;;;13.10;99.90;;;;;;5028686;28;20072;-88
2023/09/14 00:16:41;;;;;;;14.50;8.57;;;13.00;99.90;;;;;;4996532;28;20060;-88
2023/09/14 00:19:07;;;;;;;12.32;8.68;;;12.90;99.90;;;;;;5029332;28;20030;-88
2023/09/14 00:21:42;;;;;;;18.55;9.10;;;12.90;99.90;;;;;;4997140;28;20038;-87
2023/09/14 00:24:11;;;;;;;16.95;9.75;;;12.80;99.90;;;;;;5031530;28;20397;-87
2023/09/14 00:26:36;;;;;;;16.80;9.50;;;12.80;99.90;;;;;;5049165;28;20565;-88
2023/09/14 00:29:02;;;;;;;15.98;10.07;;;12.70;99.90;;;;;;5029918;28;20029;-87
2023/09/14 00:31:27;;;;;;;14.23;10.27;;;12.80;99.90;;;;;;5016439;28;20049;-88
2023/09/14 00:33:55;;;;;;;23.17;10.20;;;12.70;99.90;;;;;;5005555;28;20066;-88
2023/09/14 00:36:40;;;;;;;16.60;10.13;;;12.70;99.90;;;;;;5012378;28;20401;-89
2023/09/14 00:39:08;;;;;;;19.33;11.27;;;12.70;99.90;;;;;;5027761;28;20088;-88
2023/09/14 00:41:34;;;;;;;16.70;10.55;;;12.70;99.90;;;;;;5026897;28;20026;-88
2023/09/14 00:43:59;;;;;;;18.52;10.50;;;12.70;99.90;;;;;;4996206;28;20030;-89
2023/09/14 00:46:25;;;;;;;17.50;9.82;;;12.70;99.90;;;;;;5028080;28;20077;-88
2023/09/14 00:48:51;;;;;;;18.15;11.20;;;12.70;99.90;;;;;;4997201;28;20034;-88
2023/09/14 00:51:17;;;;;;;14.45;10.48;;;12.80;99.90;;;;;;5012174;28;20030;-88
2023/09/14 00:53:44;;;;;;;19.70;10.88;;;12.70;99.90;;;;;;5001041;28;20029;-88
2023/09/14 00:56:11;;;;;;;18.13;11.65;;;12.70;99.90;;;;;;5013241;28;20034;-88
2023/09/14 00:58:38;;;;;;;19.63;11.38;;;12.70;99.90;;;;;;5028388;28;20028;-88
2023/09/14 01:01:04;;;;;;;16.25;10.93;;;12.60;99.90;;;;;;5002924;28;20386;-87
2023/09/14 01:03:30;;;;;;;17.92;10.88;;;12.50;99.90;;;;;;5029222;28;20044;-87
2023/09/14 01:05:58;;;;;;;15.95;11.55;;;12.50;99.90;;;;;;5017003;28;20034;-88
2023/09/14 01:08:24;;;;;;;14.77;10.77;;;12.40;99.90;;;;;;4987512;28;20041;-88
2023/09/14 01:10:49;;;;;;;19.17;10.77;;;12.30;99.90;;;;;;5019766;28;20034;-89
2023/09/14 01:13:38;;;;;;;17.80;10.77;;;12.20;99.90;;;;;;4992875;28;20053;-87
2023/09/14 01:16:26;;;;;;;13.38;9.73;;;12.10;99.90;;;;;;5022219;28;20712;-89
2023/09/14 01:19:15;;;;;;;23.35;11.63;;;11.90;99.90;;;;;;5026849;28;20100;-87
2023/09/14 01:22:25;;;;;;;15.68;10.90;;;11.90;99.90;;;;;;5031016;28;20034;-88
2023/09/14 01:25:17;;;;;;;20.33;12.60;;;11.80;99.90;;;;;;5031217;28;20082;-88
2023/09/14 01:27:44;;;;;;;16.73;10.65;;;11.90;99.90;;;;;;5027205;28;20033;-88
2023/09/14 01:30:10;;;;;;;21.67;11.45;;;11.90;99.90;;;;;;5013794;28;20030;-88
2023/09/14 01:32:36;;;;;;;18.15;12.35;;;12.00;99.90;;;;;;5000227;28;20022;-88
2023/09/14 01:35:04;;;;;;;17.25;11.20;;;12.00;99.90;;;;;;5014779;28;20038;-88
2023/09/14 01:37:31;;;;;;;26.20;12.50;;;12.00;99.90;;;;;;5002369;28;20113;-88
2023/09/14 01:39:57;;;;;;;16.85;10.80;;;12.00;99.90;;;;;;5017227;28;20077;-88
2023/09/14 01:42:24;;;;;;;22.20;11.05;;;11.90;99.90;;;;;;4994186;28;20504;-88
2023/09/14 01:44:50;;;;;;;19.05;11.15;;;12.00;99.90;;;;;;5024225;28;20041;-88
2023/09/14 01:47:16;;;;;;;18.67;11.55;;;11.80;99.90;;;;;;5004207;28;20049;-88
2023/09/14 01:49:43;;;;;;;19.02;11.50;;;11.80;99.90;;;;;;5026006;28;20038;-88
2023/09/14 01:52:55;;;;;;;15.13;10.38;;;11.90;99.90;;;;;;5004029;28;20101;-88
2023/09/14 01:55:21;;;;;;;20.65;11.88;;;11.70;99.90;;;;;;5011886;28;20535;-89
2023/09/14 01:57:47;;;;;;;18.27;10.55;;;11.70;99.90;;;;;;4999739;28;20026;-88
2023/09/14 02:00:13;;;;;;;17.50;11.07;;;11.60;99.90;;;;;;5009974;28;20026;-88
2023/09/14 02:02:42;;;;;;;23.23;11.50;;;11.60;99.90;;;;;;5025511;28;20486;-87
2023/09/14 02:05:08;;;;;;;13.90;10.07;;;11.50;99.90;;;;;;4996494;28;20045;-88
2023/09/14 02:07:34;;;;;;;17.33;11.55;;;11.60;99.90;;;;;;5030769;28;20030;-88
2023/09/14 02:10:00;;;;;;;24.42;12.13;;;11.50;99.90;;;;;;5016150;28;20787;-88
2023/09/14 02:12:25;;;;;;;17.15;11.75;;;11.50;99.90;;;;;;5014055;28;20033;-88
2023/09/14 02:14:52;;;;;;;20.52;10.75;;;11.40;99.90;;;;;;5030201;28;20535;-88
2023/09/14 02:17:17;;;;;;;13.95;10.18;;;11.30;99.90;;;;;;5014116;28;20034;-88
2023/09/14 02:19:43;;;;;;;16.48;10.02;;;11.20;99.90;;;;;;5001138;28;20486;-88
2023/09/14 02:22:09;;;;;;;14.98;9.75;;;11.10;99.90;;;;;;5013389;28;20175;-88
2023/09/14 02:24:35;;;;;;;20.33;11.00;;;11.00;99.90;;;;;;4996677;28;20053;-87
2023/09/14 02:27:01;;;;;;;18.45;11.57;;;10.90;99.90;;;;;;5022829;28;20085;-88
2023/09/14 02:29:27;;;;;;;21.58;11.98;;;10.90;99.90;;;;;;5005676;28;20034;-87
2023/09/14 02:31:53;;;;;;;21.52;12.23;;;10.90;99.90;;;;;;5029243;28;20078;-88
2023/09/14 02:34:19;;;;;;;17.13;11.02;;;10.90;99.90;;;;;;5028175;28;20030;-88
2023/09/14 02:36:45;;;;;;;20.42;11.38;;;10.90;99.90;;;;;;5000603;28;20038;-88
2023/09/14 02:39:10;;;;;;;15.95;10.75;;;10.80;99.90;;;;;;4997852;28;20041;-88
2023/09/14 02:41:37;;;;;;;17.85;10.55;;;10.70;99.90;;;;;;5013418;28;20503;-88
2023/09/14 02:44:03;;;;;;;18.10;10.90;;;10.60;99.90;;;;;;5014835;28;20057;-88
2023/09/14 02:46:28;;;;;;;16.45;11.75;;;10.70;99.90;;;;;;5011329;28;20030;-88
2023/09/14 02:48:54;;;;;;;18.98;11.43;;;10.70;99.90;;;;;;5017001;28;20473;-88
2023/09/14 02:51:20;;;;;;;21.75;11.65;;;10.60;99.90;;;;;;5028012;28;20339;-88
2023/09/14 02:53:46;;;;;;;19.60;10.95;;;10.50;99.90;;;;;;5018992;28;20061;-88
2023/09/14 02:56:12;;;;;;;21.23;11.23;;;10.50;99.90;;;;;;5011181;28;20097;-88
2023/09/14 02:58:38;;;;;;;29.17;11.38;;;10.30;99.90;;;;;;5019418;28;20034;-88
2023/09/14 03:01:10;;;;;;;20.83;11.27;;;10.30;99.90;;;;;;5009025;28;20034;-88
2023/09/14 03:03:38;;;;;;;21.63;11.18;;;10.20;99.90;;;;;;5043480;28;20022;-88
2023/09/14 03:06:05;;;;;;;17.90;11.05;;;10.20;99.90;;;;;;5032755;28;20033;-88
2023/09/14 03:08:32;;;;;;;21.05;11.00;;;10.20;99.90;;;;;;5048082;28;20041;-87
2023/09/14 03:10:59;;;;;;;15.20;10.27;;;10.20;99.90;;;;;;5039285;28;20029;-88
2023/09/14 03:13:25;;;;;;;26.25;10.95;;;10.10;99.90;;;;;;5019050;28;20113;-88
2023/09/14 03:15:55;;;;;;;19.05;10.90;;;10.10;99.90;;;;;;4995816;28;20502;-88
2023/09/14 03:18:21;;;;;;;16.65;10.55;;;10.10;99.90;;;;;;5030038;28;20100;-88
2023/09/14 03:20:51;;;;;;;17.13;11.18;;;10.00;99.90;;;;;;4996677;28;20061;-88
2023/09/14 03:23:17;;;;;;;18.48;11.20;;;10.00;99.90;;;;;;5012977;28;20030;-88
2023/09/14 03:25:43;;;;;;;18.65;10.60;;;10.00;99.90;;;;;;4997041;28;20058;-89
2023/09/14 03:28:09;;;;;;;17.15;10.32;;;9.90;99.90;;;;;;5030166;28;20034;-88
2023/09/14 03:30:35;;;;;;;17.75;11.10;;;9.90;99.90;;;;;;5019236;28;20029;-88
2023/09/14 03:33:01;;;;;;;21.65;11.73;;;9.90;99.90;;;;;;5006345;28;20052;-88
2023/09/14 03:35:30;;;;;;;19.27;12.00;;;9.90;99.90;;;;;;5020513;28;20073;-88
2023/09/14 03:37:56;;;;;;;17.92;10.68;;;9.90;99.90;;;;;;5018371;28;20034;-88
2023/09/14 03:40:31;;;;;;;16.50;9.77;;;9.80;99.90;;;;;;5016239;28;20048;-88
2023/09/14 03:42:56;;;;;;;20.50;10.45;;;9.80;99.90;;;;;;5012196;28;20034;-88
2023/09/14 03:45:22;;;;;;;23.85;10.55;;;9.70;99.90;;;;;;5004651;28;20034;-88
2023/09/14 03:47:50;;;;;;;15.98;10.07;;;9.70;99.90;;;;;;5002526;28;20030;-88
2023/09/14 03:50:16;;;;;;;21.83;11.15;;;9.70;99.90;;;;;;5029116;28;20021;-88
2023/09/14 03:52:42;;;;;;;20.73;11.70;;;9.90;99.90;;;;;;5013794;28;20031;-88
2023/09/14 03:55:08;;;;;;;19.48;11.55;;;9.90;99.90;;;;;;5003502;28;20022;-88
2023/09/14 03:57:34;;;;;;;18.45;11.20;;;10.00;99.90;;;;;;5000282;28;20104;-88
2023/09/14 04:00:01;;;;;;;22.35;12.13;;;10.20;99.90;;;;;;4995691;28;20117;-88
2023/09/14 04:02:28;;;;;;;24.85;14.25;;;10.30;99.90;;;;;;5003249;28;20091;-88
2023/09/14 04:04:54;;;;;;;26.85;12.80;;;10.40;99.90;;;;;;4997848;28;20034;-88
2023/09/14 04:07:19;;;;;;;18.23;11.35;;;10.50;99.90;;;;;;5012476;28;20111;-88
2023/09/14 04:09:45;;;;;;;21.33;12.30;;;10.50;99.90;;;;;;4998289;28;20034;-88
2023/09/14 04:12:11;;;;;;;22.33;12.00;;;10.60;99.90;;;;;;5014649;28;20034;-88
2023/09/14 04:14:37;;;;;;;16.05;11.02;;;10.70;99.90;;;;;;5016164;28;20039;-89
2023/09/14 04:17:03;;;;;;;17.90;11.57;;;10.70;99.90;;;;;;5017179;28;20022;-88
2023/09/14 04:19:30;;;;;;;17.98;11.60;;;10.90;99.90;;;;;;5006567;28;21127;-88
2023/09/14 04:21:57;;;;;;;19.33;11.10;;;10.80;99.90;;;;;;4996535;28;20035;-88
2023/09/14 04:24:22;;;;;;;17.05;10.57;;;10.80;99.90;;;;;;5001991;28;20119;-88
2023/09/14 04:26:48;;;;;;;15.77;11.70;;;10.70;99.90;;;;;;4997652;28;20687;-88
2023/09/14 04:29:14;;;;;;;18.48;11.82;;;10.70;99.90;;;;;;4996229;28;20058;-88
2023/09/14 04:31:41;;;;;;;19.70;11.20;;;10.70;99.90;;;;;;4998991;28;20029;-87
2023/09/14 04:34:07;;;;;;;19.17;10.65;;;10.60;99.90;;;;;;4996277;28;20022;-89
2023/09/14 04:36:34;;;;;;;19.67;10.75;;;10.60;99.90;;;;;;5016915;28;20029;-88
2023/09/14 04:39:04;;;;;;;16.85;11.27;;;10.50;99.90;;;;;;5013807;28;20021;-88
2023/09/14 04:41:32;;;;;;;17.27;11.15;;;10.60;99.90;;;;;;5011251;28;20029;-88
2023/09/14 04:43:58;;;;;;;20.75;11.60;;;10.70;99.90;;;;;;5014148;28;20023;-88
2023/09/14 04:46:24;;;;;;;17.92;10.88;;;10.70;99.90;;;;;;5009293;28;20050;-88
2023/09/14 04:48:49;;;;;;;19.05;11.05;;;10.70;99.90;;;;;;5000324;28;20026;-88
2023/09/14 04:51:15;;;;;;;21.65;11.93;;;10.80;99.90;;;;;;5023857;28;20038;-87
2023/09/14 04:53:44;;;;;;;27.25;12.00;;;10.80;99.90;;;;;;5007892;28;20049;-88
2023/09/14 04:56:10;;;;;;;18.73;11.38;;;10.80;99.90;;;;;;4996051;28;20041;-89
2023/09/14 04:58:37;;;;;;;17.77;10.82;;;10.80;99.90;;;;;;4989291;28;20478;-87
2023/09/14 05:01:05;;;;;;;16.20;9.98;;;10.80;99.90;;;;;;5006464;28;20021;-85
2023/09/14 05:03:31;;;;;;;14.13;9.55;;;10.80;99.90;;;;;;5023915;28;20026;-85
2023/09/14 05:05:58;;;;;;;17.23;9.45;;;10.70;99.90;;;;;;4994113;28;20026;-86
2023/09/14 05:08:25;;;;;;;21.23;9.75;;;10.70;99.90;;;;;;4994215;28;20026;-86
2023/09/14 05:10:53;;;;;;;15.20;9.55;;;10.70;99.90;;;;;;5002593;28;20057;-86
2023/09/14 05:13:20;;;;;;;15.52;9.82;;;10.70;99.90;;;;;;4998704;28;20030;-85
2023/09/14 05:15:47;;;;;;;17.85;9.30;;;10.60;99.90;;;;;;5027070;28;20058;-85
2023/09/14 05:18:14;;;;;;;27.65;11.57;;;10.60;99.90;;;;;;5013079;28;20673;-86
2023/09/14 05:20:55;;;;;;;16.40;9.60;;;10.50;99.90;;;;;;4996980;28;20034;-86
2023/09/14 05:23:20;;;;;;;18.92;9.55;;;10.50;99.90;;;;;;5027977;28;20072;-85
2023/09/14 05:25:47;;;;;;;19.55;10.50;;;10.50;99.90;;;;;;5030320;28;20037;-86
2023/09/14 05:28:31;;;;;;;20.42;10.40;;;10.50;99.90;;;;;;5016422;28;20030;-86
2023/09/14 05:30:57;;;;;;;17.88;9.90;;;10.50;99.90;;;;;;5005175;28;20029;-86
2023/09/14 05:33:23;;;;;;;26.50;10.02;;;10.50;99.90;;;;;;5031178;28;20116;-86
2023/09/14 05:35:50;;;;;;;18.58;9.52;;;10.50;99.90;;;;;;5023138;28;20424;-86
2023/09/14 05:38:16;;;;;;;17.92;11.48;;;10.50;99.90;;;;;;4998514;28;20026;-85
2023/09/14 05:40:42;;;;;;;18.05;10.50;;;10.50;99.90;;;;;;5005963;28;20068;-85
2023/09/14 05:43:17;;;;;;;21.42;10.63;;;10.50;99.90;;;;;;4999152;28;20023;-86
2023/09/14 05:45:43;;;;;;;15.57;9.95;;;10.60;99.90;;;;;;5004890;28;20117;-86
2023/09/14 05:48:09;;;;;;;16.38;10.10;;;10.50;99.90;;;;;;5014141;28;20426;-87
2023/09/14 05:50:53;;;;;;;21.83;10.35;;;10.50;99.90;;;;;;5014516;28;20034;-86
2023/09/14 05:53:18;;;;;;;21.38;10.73;;;10.50;99.90;;;;;;5000735;28;20114;-86
2023/09/14 05:55:44;;;;;;;17.63;9.65;;;10.50;99.90;;;;;;5011985;28;20058;-86
2023/09/14 05:58:11;;;;;;;21.00;10.82;;;10.50;99.90;;;;;;4997972;28;20021;-85
2023/09/14 06:01:05;;;;;;;17.08;10.02;;;10.60;99.90;;;;;;5016777;28;20022;-86
2023/09/14 06:03:31;;;;;;;18.90;10.38;;;10.70;99.90;;;;;;5022831;28;20109;-86
2023/09/14 06:05:57;;;;;;;18.63;9.38;;;11.00;99.90;;;;;;5024246;28;20101;-86
2023/09/14 06:08:24;;;;;;;18.90;9.55;;;11.20;99.90;;;;;;5005134;28;20030;-86
2023/09/14 06:10:50;;;;;;;14.00;8.32;;;11.40;99.90;;;;;;5012964;28;20363;-86
2023/09/14 06:13:17;;;;;;;15.60;7.65;;;11.50;99.90;;;;;;5018390;28;20033;-86
2023/09/14 06:15:43;;;;;;;17.67;7.03;;;11.60;99.90;;;;;;4996553;28;20037;-86
2023/09/14 06:18:09;;;;;;;11.38;6.85;;;11.80;99.90;;;;;;5001428;28;20387;-87
2023/09/14 06:20:35;;;;;;;14.57;6.57;;;11.90;99.90;;;;;;5025133;28;20075;-86
2023/09/14 06:23:01;;;;;;;9.93;5.85;;;12.00;99.90;;;;;;5001019;28;20037;-86
2023/09/14 06:25:27;;;;;;;10.15;6.25;;;12.20;99.90;;;;;;5024581;28;20165;-86
2023/09/14 06:27:52;;;;;;;15.15;6.22;;;12.40;99.90;;;;;;4999199;28;20030;-86
2023/09/14 06:30:18;;;;;;;12.07;6.22;;;12.50;99.90;;;;;;5009218;28;20018;-86
2023/09/14 06:32:44;;;;;;;10.48;5.20;;;12.60;99.90;;;;;;4977924;28;20073;-86
2023/09/14 06:35:10;;;;;;;10.77;5.60;;;12.60;99.90;;;;;;4999541;28;20023;-86
2023/09/14 06:37:36;;;;;;;13.40;5.13;;;12.80;99.90;;;;;;5025074;28;20563;-86
2023/09/14 06:40:05;;;;;;;10.52;5.50;;;12.90;99.90;;;;;;5012419;28;20037;-86
2023/09/14 06:42:31;;;;;;;12.30;5.70;;;13.10;99.90;;;;;;5011687;28;20031;-86
2023/09/14 06:44:57;;;;;;;10.13;4.55;;;13.10;99.90;;;;;;4985277;28;20409;-86
2023/09/14 06:47:23;;;;;;;7.93;4.35;;;13.20;99.90;;;;;;4989645;28;20093;-86
2023/09/14 06:49:49;;;;;;;8.75;4.85;;;13.30;99.90;;;;;;5006524;28;20124;-85
2023/09/14 06:52:15;;;;;;;11.52;5.05;;;13.40;99.90;;;;;;4996498;28;20078;-86
2023/09/14 06:54:40;;;;;;;10.30;4.82;;;13.50;99.90;;;;;;5021260;28;20030;-86
2023/09/14 06:57:06;;;;;;;8.32;4.80;;;13.70;99.90;;;;;;5013629;28;20113;-85
2023/09/14 06:59:32;;;;;;;11.13;4.28;;;13.80;99.90;;;;;;4996618;28;20137;-86
2023/09/14 07:01:59;;;;;;;13.85;4.82;;;13.90;99.90;;;;;;4999346;28;20026;-86
2023/09/14 07:04:25;;;;;;;8.05;4.10;;;14.10;99.90;;;;;;5019802;28;20390;-86
2023/09/14 07:06:51;;;;;;;6.90;4.43;;;14.40;99.90;;;;;;4986218;28;20408;-86
2023/09/14 07:09:16;;;;;;;7.95;4.53;;;14.60;99.90;;;;;;5018561;28;20117;-85
2023/09/14 07:11:42;;;;;;;7.38;4.13;;;14.80;99.90;;;;;;5024653;28;20037;-86
2023/09/14 07:14:08;;;;;;;11.90;4.03;;;15.00;99.90;;;;;;4999939;28;20624;-86
2023/09/14 07:16:34;;;;;;;8.38;4.40;;;15.10;99.90;;;;;;5005111;28;20030;-85
2023/09/14 07:19:00;;;;;;;8.75;3.58;;;15.30;99.90;;;;;;5006492;28;20030;-86
2023/09/14 07:21:27;;;;;;;7.75;4.43;;;15.50;99.90;;;;;;5008630;28;20052;-86
2023/09/14 07:23:52;;;;;;;11.82;4.38;;;15.60;99.90;;;;;;5007328;28;20042;-86
2023/09/14 07:26:18;;;;;;;8.27;3.83;;;15.60;99.90;;;;;;4998917;28;20048;-86
2023/09/14 07:28:44;;;;;;;6.45;4.05;;;15.70;99.90;;;;;;5003905;28;20033;-86
2023/09/14 07:31:10;;;;;;;6.45;3.63;;;15.80;99.90;;;;;;5012231;28;20034;-86
2023/09/14 07:33:36;;;;;;;9.57;4.68;;;15.90;99.90;;;;;;5010728;28;20088;-86
2023/09/14 07:36:02;;;;;;;8.75;3.80;;;16.00;99.90;;;;;;5011298;28;20029;-86
2023/09/14 07:38:28;;;;;;;8.57;4.53;;;16.10;99.90;;;;;;4997912;28;20037;-85
2023/09/14 07:40:55;;;;;;;8.15;4.07;;;16.30;99.90;;;;;;5025344;28;20034;-86
2023/09/14 07:43:21;;;;;;;9.88;4.45;;;16.40;99.90;;;;;;5010267;28;20477;-86
2023/09/14 07:45:47;;;;;;;13.48;4.30;;;16.50;99.90;;;;;;4985978;28;20045;-86
2023/09/14 07:48:14;;;;;;;9.63;4.55;;;16.60;99.90;;;;;;5007007;28;20061;-86
2023/09/14 07:50:40;;;;;;;16.25;5.07;;;16.70;99.90;;;;;;5002293;28;20057;-85
2023/09/14 07:53:09;;;;;;;10.02;4.20;;;16.90;99.90;;;;;;4987452;28;20030;-85
2023/09/14 07:55:36;;;;;;;10.85;4.55;;;16.90;99.90;;;;;;4989033;28;20030;-86
2023/09/14 07:58:02;;;;;;;6.10;4.28;;;16.90;99.90;;;;;;5007740;28;20101;-86
2023/09/14 08:00:28;;;;;;;8.57;4.63;;;16.90;99.90;;;;;;5007055;28;20037;-86
2023/09/14 08:02:54;;;;;;;8.15;5.03;;;16.80;99.90;;;;;;5017389;28;20038;-87
2023/09/14 08:05:20;;;;;;;8.73;5.50;;;16.40;99.90;;;;;;5006371;28;20039;-86
2023/09/14 08:07:45;;;;;;;9.07;5.78;;;15.80;99.90;;;;;;5020005;28;20478;-86
2023/09/14 08:10:12;;;;;;;10.77;5.72;;;15.40;99.90;;;;;;4990701;28;20034;-85
2023/09/14 08:12:37;;;;;;;9.30;5.88;;;15.20;99.90;;;;;;5004141;28;20034;-86
2023/09/14 08:15:04;;;;;;;9.05;5.65;;;15.00;99.90;;;;;;4998868;28;20340;-86
2023/09/14 08:17:30;;;;;;;10.75;5.75;;;14.80;99.90;;;;;;5010990;28;20389;-86
2023/09/14 08:19:56;;;;;;;8.15;4.88;;;14.90;99.90;;;;;;5007151;28;20033;-86
2023/09/14 08:22:23;;;;;;;8.55;5.15;;;14.90;99.90;;;;;;4980097;28;20038;-86
2023/09/14 08:24:49;;;;;;;9.32;5.68;;;15.00;99.90;;;;;;5005287;28;20034;-86
2023/09/14 08:27:15;;;;;;;7.95;4.75;;;15.20;99.90;;;;;;4984455;28;20188;-86
2023/09/14 08:29:47;;;;;;;9.13;5.28;;;15.30;99.90;;;;;;5018937;28;20097;-86
2023/09/14 08:32:12;;;;;;;9.38;6.53;;;15.30;99.90;;;;;;5022940;28;20038;-86
2023/09/14 08:34:38;;;;;;;8.63;5.00;;;15.20;99.90;;;;;;5000040;28;20156;-86
2023/09/14 08:37:07;;;;;;;7.32;5.07;;;15.10;99.90;;;;;;5000755;28;20492;-85
2023/09/14 08:39:32;;;;;;;9.68;4.95;;;15.10;99.90;;;;;;5009303;28;20077;-86
2023/09/14 08:41:58;;;;;;;7.20;4.57;;;15.40;99.90;;;;;;4997572;28;20501;-86
2023/09/14 08:44:24;;;;;;;4.57;3.42;;;16.90;99.90;;;;;;5012257;28;20034;-86
2023/09/14 08:46:53;;;;;;;7.72;3.90;;;19.10;99.90;;;;;;4990665;28;20504;-86
2023/09/14 08:49:21;;;;;;;5.50;3.50;;;21.30;99.90;;;;;;5028129;28;20033;-86
2023/09/14 08:51:50;;;;;;;7.38;3.60;;;22.50;99.90;;;;;;4992429;28;20036;-86
2023/09/14 08:54:17;;;;;;;5.55;3.42;;;21.80;99.90;;;;;;5003467;28;20022;-86
2023/09/14 08:56:43;;;;;;;5.30;3.40;;;20.80;99.90;;;;;;5014021;28;20037;-86
2023/09/14 08:59:11;;;;;;;5.13;3.13;;;19.60;99.90;;;;;;5030547;28;20069;-86
2023/09/14 09:01:37;;;;;;;5.65;3.40;;;19.00;99.90;;;;;;5016116;28;20117;-86
2023/09/14 09:04:03;;;;;;;4.80;3.28;;;20.30;99.90;;;;;;5011177;28;20044;-86
2023/09/14 09:06:30;;;;;;;6.00;3.75;;;21.60;99.90;;;;;;4990851;28;20027;-86
2023/09/14 09:08:59;;;;;;;4.53;3.63;;;22.80;99.90;;;;;;5030228;28;20133;-86
2023/09/14 09:11:24;;;;;;;4.82;3.47;;;23.10;99.90;;;;;;5030598;28;20040;-86
2023/09/14 09:13:50;;;;;;;7.15;3.80;;;23.70;99.90;;;;;;5014042;28;20397;-87
2023/09/14 09:16:15;;;;;;;5.32;3.20;;;24.30;99.90;;;;;;4997027;28;20034;-86
2023/09/14 09:19:02;;;;;;;5.15;2.65;;;24.00;99.90;;;;;;5014396;28;20038;-84
2023/09/14 09:21:29;;;;;;;4.15;3.08;;;23.40;99.90;;;;;;5031001;28;20037;-84
2023/09/14 09:23:55;;;;;;;5.20;3.20;;;22.50;99.90;;;;;;5014215;28;20069;-87
2023/09/14 09:26:20;;;;;;;4.72;3.30;;;21.30;99.90;;;;;;5030263;28;20057;-86
2023/09/14 09:28:47;;;;;;;6.95;4.05;;;20.20;99.90;;;;;;5006902;28;20041;-86
2023/09/14 09:31:13;;;;;;;4.85;3.47;;;19.30;99.90;;;;;;5026742;28;20026;-85
2023/09/14 09:33:40;;;;;;;7.00;3.70;;;18.50;99.90;;;;;;4997646;28;20040;-86
2023/09/14 09:36:19;;;;;;;5.00;3.08;;;18.20;99.90;;;;;;5027438;28;20552;-86
2023/09/14 09:38:47;;;;;;;4.18;2.90;;;18.80;99.90;;;;;;5010753;28;20080;-86
2023/09/14 09:41:15;;;;;;;6.38;3.83;;;19.80;99.90;;;;;;5027265;28;20608;-85
2023/09/14 09:43:43;;;;;;;4.20;3.30;;;20.80;99.90;;;;;;5003710;28;20042;-87
2023/09/14 09:46:17;;;;;;;4.82;3.20;;;21.30;99.90;;;;;;5010402;28;20041;-86
2023/09/14 09:48:43;;;;;;;3.97;2.50;;;21.50;99.90;;;;;;5021243;28;20084;-86
2023/09/14 09:51:09;;;;;;;4.13;2.60;;;22.50;99.90;;;;;;4992112;28;20040;-86
2023/09/14 09:53:35;;;;;;;4.78;2.92;;;23.20;99.90;;;;;;5028971;28;20025;-86
2023/09/14 09:56:02;;;;;;;5.25;2.83;;;24.30;99.90;;;;;;4993778;28;20122;-85
2023/09/14 09:58:38;;;;;;;3.55;2.53;;;24.90;99.90;;;;;;5013812;28;20034;-84
2023/09/14 10:01:03;;;;;;;3.13;2.47;;;25.80;99.90;;;;;;5025842;28;20065;-84
2023/09/14 10:03:30;;;;;;;4.05;2.65;;;25.20;99.90;;;;;;4995258;28;20116;-86
2023/09/14 10:05:56;;;;;;;4.20;2.55;;;25.20;99.90;;;;;;4996237;28;20026;-86
2023/09/14 10:08:22;;;;;;;6.00;2.70;;;24.40;99.90;;;;;;5028810;28;20032;-85
2023/09/14 10:10:51;;;;;;;4.30;2.80;;;22.90;99.90;;;;;;4997906;28;20042;-86
2023/09/14 10:13:22;;;;;;;4.45;2.42;;;22.10;99.90;;;;;;4998659;28;20112;-86
2023/09/14 10:15:53;;;;;;;;;;;21.40;99.90;;;;;;5022473;28;20034;-86
2023/09/14 10:18:23;;;;;;;5.32;2.40;;;21.10;99.90;;;;;;5000403;28;19956;-86
2023/09/14 10:20:53;;;;;;;5.28;2.60;;;21.20;99.90;;;;;;5019871;28;20482;-86
2023/09/14 10:23:20;;;;;;;3.97;2.38;;;21.10;99.90;;;;;;5018901;28;20030;-84
2023/09/14 10:25:49;;;;;;;3.80;2.00;;;21.60;99.90;;;;;;5010473;28;20038;-84
2023/09/14 10:28:22;;;;;;;4.82;2.08;;;21.70;99.90;;;;;;5001212;28;20041;-85
2023/09/14 10:30:50;;;;;;;3.63;2.10;;;21.50;99.90;;;;;;4994816;28;20041;-86
2023/09/14 10:33:17;;;;;;;3.92;2.25;;;22.30;99.90;;;;;;5009183;28;20362;-86
2023/09/14 10:35:52;;;;;;;2.70;2.05;;;23.00;99.90;;;;;;5021735;28;20709;-86
2023/09/14 10:38:23;;;;;;;2.22;1.75;;;24.10;99.90;;;;;;5000343;28;20585;-86
2023/09/14 10:40:51;;;;;;;7.70;2.38;;;25.00;99.90;;;;;;5000647;28;20068;-85
2023/09/14 10:43:16;;;;;;;7.25;2.30;;;25.30;99.90;;;;;;5025960;28;20375;-84
2023/09/14 10:45:45;;;;;;;3.35;1.83;;;24.90;99.90;;;;;;4996833;28;20030;-84
2023/09/14 10:48:18;;;;;;;2.38;2.03;;;24.20;99.90;;;;;;5010718;28;20065;-84
2023/09/14 10:50:44;;;;;;;2.80;1.85;;;24.30;99.90;;;;;;4995510;28;20110;-84
2023/09/14 10:53:09;;;;;;;2.97;1.70;;;24.40;99.90;;;;;;5016645;28;20022;-85
2023/09/14 10:55:35;;;;;;;3.10;1.80;;;24.30;99.90;;;;;;4996021;28;20474;-84
2023/09/14 10:58:02;;;;;;;2.83;1.80;;;24.60;99.90;;;;;;4995536;28;20076;-84
2023/09/14 11:00:33;;;;;;;6.90;1.80;;;24.80;99.80;;;;;;4996002;28;20652;-85
2023/09/14 11:02:59;;;;;;;5.40;1.60;;;24.80;99.00;;;;;;5012525;28;20038;-84
2023/09/14 11:05:26;;;;;;;3.60;2.10;;;24.80;99.90;;;;;;5012443;28;20461;-84
2023/09/14 11:08:00;;;;;;;5.07;1.90;;;24.90;99.60;;;;;;5011296;28;20033;-85
2023/09/14 11:10:27;;;;;;;2.70;1.88;;;24.60;99.20;;;;;;5004763;28;20033;-85
2023/09/14 11:13:18;;;;;;;3.03;2.10;;;23.80;99.90;;;;;;4995693;28;20025;-85
2023/09/14 11:15:46;;;;;;;3.67;1.70;;;23.80;99.90;;;;;;5006978;28;20033;-84
2023/09/14 11:18:48;;;;;;;7.20;2.40;;;23.40;99.90;;;;;;4993700;28;20017;-84
2023/09/14 11:21:32;;;;;;;4.07;1.77;;;22.70;99.90;;;;;;5024818;28;20089;-85
2023/09/14 11:23:59;;;;;;;3.58;1.98;;;22.90;99.90;;;;;;5012333;28;20358;-84
2023/09/14 11:26:46;;;;;;;3.17;1.70;;;23.10;99.90;;;;;;5011803;28;20026;-85
2023/09/14 11:29:12;;;;;;;3.90;1.90;;;23.10;99.90;;;;;;4987872;28;20034;-84
2023/09/14 11:31:39;;;;;;;3.20;1.80;;;23.50;99.90;;;;;;5022285;28;20056;-85
2023/09/14 11:34:10;;;;;;;2.75;2.15;;;24.60;99.90;;;;;;4994390;28;20030;-85
2023/09/14 11:36:36;;;;;;;;;;;25.10;98.10;;;;;;5000690;28;20536;-85
2023/09/14 11:39:10;;;;;;;3.08;2.17;;;25.80;97.90;;;;;;5021774;28;19910;-85
2023/09/14 11:41:56;;;;;;;2.13;1.77;;;25.60;96.10;;;;;;5021353;28;20474;-86
2023/09/14 11:44:23;;;;;;;2.78;2.10;;;25.00;97.30;;;;;;5023009;28;20057;-84
2023/09/14 11:46:49;;;;;;;3.20;1.92;;;25.30;97.20;;;;;;5000726;28;20124;-85
2023/09/14 11:49:18;;;;;;;3.60;2.10;;;24.80;97.00;;;;;;5008704;28;20025;-85
2023/09/14 11:51:44;;;;;;;2.53;1.63;;;24.60;96.90;;;;;;4997971;28;20389;-84
2023/09/14 11:54:10;;;;;;;4.70;1.85;;;25.10;96.90;;;;;;4989981;28;20084;-85
2023/09/14 11:56:36;;;;;;;3.30;1.83;;;25.70;95.80;;;;;;4997151;28;20368;-85
2023/09/14 11:59:05;;;;;;;3.88;1.63;;;25.30;95.30;;;;;;5007560;28;20053;-84
2023/09/14 12:01:35;;;;;;;2.60;1.80;;;24.60;96.80;;;;;;4999842;28;20105;-85
2023/09/14 12:04:04;;;;;;;2.72;1.60;;;24.30;98.20;;;;;;4998737;28;20022;-85
2023/09/14 12:06:30;;;;;;;3.20;1.67;;;23.90;97.50;;;;;;5011103;28;20473;-85
2023/09/14 12:08:57;;;;;;;4.00;1.73;;;23.80;97.50;;;;;;4986760;28;20030;-84
2023/09/14 12:11:22;;;;;;;2.78;1.88;;;23.60;97.20;;;;;;5009250;28;20041;-84
2023/09/14 12:13:53;;;;;;;8.43;2.33;;;23.80;96.20;;;;;;4988677;28;20405;-84
2023/09/14 12:16:29;;;;;;;6.90;2.10;;;24.00;97.00;;;;;;5006411;28;20021;-85
2023/09/14 12:18:55;;;;;;;4.25;1.83;;;23.90;97.60;;;;;;5008973;28;20121;-85
2023/09/14 12:21:25;;;;;;;5.57;2.00;;;24.20;97.50;;;;;;5004447;28;20062;-85
2023/09/14 12:23:51;;;;;;;4.05;1.98;;;24.20;97.10;;;;;;5003579;28;20038;-85
2023/09/14 12:26:19;;;;;;;3.60;2.08;;;23.90;97.40;;;;;;5002263;28;20111;-84
2023/09/14 12:29:10;;;;;;;3.58;2.13;;;23.40;97.60;;;;;;4996954;28;20126;-84
2023/09/14 12:31:37;;;;;;;4.13;2.05;;;23.10;99.20;;;;;;5021319;28;20031;-85
2023/09/14 12:34:03;;;;;;;5.55;1.98;;;23.30;99.30;;;;;;4993561;28;20053;-84
2023/09/14 12:36:35;;;;;;;3.75;2.45;;;23.60;99.00;;;;;;5006372;28;20112;-84
2023/09/14 12:39:01;;;;;;;4.28;2.42;;;23.30;98.50;;;;;;5002801;28;20765;-84
2023/09/14 12:41:27;;;;;;;5.70;2.50;;;22.60;99.90;;;;;;5008291;28;20113;-84
2023/09/14 12:43:53;;;;;;;5.38;2.03;;;22.40;99.90;;;;;;4984620;28;20561;-84